sensor_id;sensor_type;location;lat;lon;timestamp;temperature;humidity
67559;DHT22;54388;53.536;49.300;2023-04-03T00:00:54;7.50;60.80
67559;DHT22;54388;53.536;49.300;2023-04-03T00:03:22;7.50;61.10
67559;DHT22;54388;53.536;49.300;2023-04-03T00:05:49;7.50;61.50
67559;DHT22;54388;53.536;49.300;2023-04-03T00:08:16;7.40;61.90
67559;DHT22;54388;53.536;49.300;2023-04-03T00:10:43;7.40;62.10
67559;DHT22;54388;53.536;49.300;2023-04-03T00:13:10;7.40;62.30
67559;DHT22;54388;53.536;49.300;2023-04-03T00:15:38;7.30;62.40
67559;DHT22;54388;53.536;49.300;2023-04-03T00:18:05;7.30;62.50
67559;DHT22;54388;53.536;49.300;2023-04-03T00:20:35;7.30;62.50
67559;DHT22;54388;53.536;49.300;2023-04-03T00:23:01;7.30;62.70
67559;DHT22;54388;53.536;49.300;2023-04-03T00:25:29;7.20;62.70
67559;DHT22;54388;53.536;49.300;2023-04-03T00:27:55;7.20;62.90
67559;DHT22;54388;53.536;49.300;2023-04-03T00:30:22;7.10;63.00
67559;DHT22;54388;53.536;49.300;2023-04-03T00:32:50;7.10;63.30
67559;DHT22;54388;53.536;49.300;2023-04-03T00:35:19;7.10;64.10
67559;DHT22;54388;53.536;49.300;2023-04-03T00:37:47;7.10;63.90
67559;DHT22;54388;53.536;49.300;2023-04-03T00:40:15;7.00;64.00
67559;DHT22;54388;53.536;49.300;2023-04-03T00:42:44;7.00;64.30
67559;DHT22;54388;53.536;49.300;2023-04-03T00:47:45;6.90;65.00
67559;DHT22;54388;53.536;49.300;2023-04-03T00:50:12;6.90;65.40
67559;DHT22;54388;53.536;49.300;2023-04-03T00:52:39;6.90;65.80
67559;DHT22;54388;53.536;49.300;2023-04-03T00:55:08;6.80;66.20
67559;DHT22;54388;53.536;49.300;2023-04-03T00:57:35;6.80;66.50
67559;DHT22;54388;53.536;49.300;2023-04-03T01:00:09;6.80;66.50
67559;DHT22;54388;53.536;49.300;2023-04-03T01:02:36;6.80;66.70
67559;DHT22;54388;53.536;49.300;2023-04-03T01:05:04;6.80;66.70
67559;DHT22;54388;53.536;49.300;2023-04-03T01:07:31;6.70;67.80
67559;DHT22;54388;53.536;49.300;2023-04-03T01:10:02;6.70;67.10
67559;DHT22;54388;53.536;49.300;2023-04-03T01:12:32;6.70;67.30
67559;DHT22;54388;53.536;49.300;2023-04-03T01:15:11;6.70;67.60
67559;DHT22;54388;53.536;49.300;2023-04-03T01:18:16;6.70;68.10
67559;DHT22;54388;53.536;49.300;2023-04-03T01:24:03;6.60;68.50
67559;DHT22;54388;53.536;49.300;2023-04-03T01:26:34;6.60;68.10
67559;DHT22;54388;53.536;49.300;2023-04-03T01:29:02;6.60;68.50
67559;DHT22;54388;53.536;49.300;2023-04-03T01:34:03;6.50;69.20
67559;DHT22;54388;53.536;49.300;2023-04-03T01:36:31;6.50;69.20
67559;DHT22;54388;53.536;49.300;2023-04-03T01:38:59;6.50;69.40
67559;DHT22;54388;53.536;49.300;2023-04-03T01:41:27;6.50;69.70
67559;DHT22;54388;53.536;49.300;2023-04-03T01:43:53;6.40;69.90
67559;DHT22;54388;53.536;49.300;2023-04-03T01:46:21;6.40;70.20
67559;DHT22;54388;53.536;49.300;2023-04-03T01:48:48;6.40;70.50
67559;DHT22;54388;53.536;49.300;2023-04-03T01:51:16;6.40;70.80
67559;DHT22;54388;53.536;49.300;2023-04-03T01:53:43;6.40;70.80
67559;DHT22;54388;53.536;49.300;2023-04-03T01:56:09;6.40;71.20
67559;DHT22;54388;53.536;49.300;2023-04-03T01:58:36;6.30;71.50
67559;DHT22;54388;53.536;49.300;2023-04-03T02:01:02;6.30;71.90
67559;DHT22;54388;53.536;49.300;2023-04-03T02:03:29;6.30;72.30
67559;DHT22;54388;53.536;49.300;2023-04-03T02:05:57;6.30;72.50
67559;DHT22;54388;53.536;49.300;2023-04-03T02:08:23;6.30;72.70
67559;DHT22;54388;53.536;49.300;2023-04-03T02:10:50;6.20;72.80
67559;DHT22;54388;53.536;49.300;2023-04-03T02:13:18;6.20;73.10
67559;DHT22;54388;53.536;49.300;2023-04-03T02:15:45;6.20;73.50
67559;DHT22;54388;53.536;49.300;2023-04-03T02:18:11;6.30;73.90
67559;DHT22;54388;53.536;49.300;2023-04-03T02:20:38;6.30;74.30
67559;DHT22;54388;53.536;49.300;2023-04-03T02:23:04;6.20;74.60
67559;DHT22;54388;53.536;49.300;2023-04-03T02:25:34;6.20;74.80
67559;DHT22;54388;53.536;49.300;2023-04-03T02:28:01;6.20;75.00
67559;DHT22;54388;53.536;49.300;2023-04-03T02:30:27;6.20;75.10
67559;DHT22;54388;53.536;49.300;2023-04-03T02:32:54;6.20;75.20
67559;DHT22;54388;53.536;49.300;2023-04-03T02:35:21;6.20;75.30
67559;DHT22;54388;53.536;49.300;2023-04-03T02:37:47;6.20;75.40
67559;DHT22;54388;53.536;49.300;2023-04-03T02:40:14;6.20;75.40
67559;DHT22;54388;53.536;49.300;2023-04-03T02:42:40;6.30;75.60
67559;DHT22;54388;53.536;49.300;2023-04-03T02:45:07;6.30;75.50
67559;DHT22;54388;53.536;49.300;2023-04-03T02:47:34;6.30;75.50
67559;DHT22;54388;53.536;49.300;2023-04-03T02:50:00;6.30;75.40
67559;DHT22;54388;53.536;49.300;2023-04-03T02:52:27;6.40;75.60
67559;DHT22;54388;53.536;49.300;2023-04-03T02:54:54;6.40;75.60
67559;DHT22;54388;53.536;49.300;2023-04-03T02:57:21;6.50;75.50
67559;DHT22;54388;53.536;49.300;2023-04-03T02:59:48;6.50;75.50
67559;DHT22;54388;53.536;49.300;2023-04-03T03:02:15;6.60;75.60
67559;DHT22;54388;53.536;49.300;2023-04-03T03:04:42;6.70;75.50
67559;DHT22;54388;53.536;49.300;2023-04-03T03:07:09;6.80;75.40
67559;DHT22;54388;53.536;49.300;2023-04-03T03:09:36;7.00;75.50
67559;DHT22;54388;53.536;49.300;2023-04-03T03:12:03;7.30;74.60
67559;DHT22;54388;53.536;49.300;2023-04-03T03:14:30;7.50;73.40
67559;DHT22;54388;53.536;49.300;2023-04-03T03:16:57;7.90;72.00
67559;DHT22;54388;53.536;49.300;2023-04-03T03:19:24;8.30;69.80
67559;DHT22;54388;53.536;49.300;2023-04-03T03:21:51;8.70;67.50
67559;DHT22;54388;53.536;49.300;2023-04-03T03:24:18;9.10;65.00
67559;DHT22;54388;53.536;49.300;2023-04-03T03:26:45;9.50;62.70
67559;DHT22;54388;53.536;49.300;2023-04-03T03:29:11;9.90;60.80
67559;DHT22;54388;53.536;49.300;2023-04-03T03:31:38;10.20;59.00
67559;DHT22;54388;53.536;49.300;2023-04-03T03:34:05;10.50;57.60
67559;DHT22;54388;53.536;49.300;2023-04-03T03:36:32;10.80;56.30
67559;DHT22;54388;53.536;49.300;2023-04-03T03:38:59;11.20;55.30
67559;DHT22;54388;53.536;49.300;2023-04-03T03:41:25;11.50;54.30
67559;DHT22;54388;53.536;49.300;2023-04-03T03:43:52;11.80;53.30
67559;DHT22;54388;53.536;49.300;2023-04-03T03:46:19;12.10;52.40
67559;DHT22;54388;53.536;49.300;2023-04-03T03:48:46;12.40;51.40
67559;DHT22;54388;53.536;49.300;2023-04-03T03:51:12;12.70;50.30
67559;DHT22;54388;53.536;49.300;2023-04-03T03:53:39;13.00;49.50
67559;DHT22;54388;53.536;49.300;2023-04-03T03:56:06;13.30;48.70
67559;DHT22;54388;53.536;49.300;2023-04-03T03:58:33;13.60;47.90
67559;DHT22;54388;53.536;49.300;2023-04-03T04:01:02;13.90;47.20
67559;DHT22;54388;53.536;49.300;2023-04-03T04:03:28;14.20;46.20
67559;DHT22;54388;53.536;49.300;2023-04-03T04:05:55;14.50;45.50
67559;DHT22;54388;53.536;49.300;2023-04-03T04:08:22;14.90;44.60
67559;DHT22;54388;53.536;49.300;2023-04-03T04:10:49;15.10;43.90
67559;DHT22;54388;53.536;49.300;2023-04-03T04:13:16;15.50;43.30
67559;DHT22;54388;53.536;49.300;2023-04-03T04:15:43;15.80;42.20
67559;DHT22;54388;53.536;49.300;2023-04-03T04:18:10;16.10;41.30
67559;DHT22;54388;53.536;49.300;2023-04-03T04:20:37;16.40;40.30
67559;DHT22;54388;53.536;49.300;2023-04-03T04:23:04;16.70;39.20
67559;DHT22;54388;53.536;49.300;2023-04-03T04:25:30;17.10;38.50
67559;DHT22;54388;53.536;49.300;2023-04-03T04:27:57;17.40;37.30
67559;DHT22;54388;53.536;49.300;2023-04-03T04:30:24;17.70;36.50
67559;DHT22;54388;53.536;49.300;2023-04-03T04:32:51;18.00;35.80
67559;DHT22;54388;53.536;49.300;2023-04-03T04:35:17;18.30;34.90
67559;DHT22;54388;53.536;49.300;2023-04-03T04:37:44;18.60;34.20
67559;DHT22;54388;53.536;49.300;2023-04-03T04:40:11;18.80;33.70
67559;DHT22;54388;53.536;49.300;2023-04-03T04:42:38;19.00;33.30
67559;DHT22;54388;53.536;49.300;2023-04-03T04:45:05;19.30;32.80
67559;DHT22;54388;53.536;49.300;2023-04-03T04:47:32;19.50;32.30
67559;DHT22;54388;53.536;49.300;2023-04-03T04:49:59;19.80;31.80
67559;DHT22;54388;53.536;49.300;2023-04-03T04:52:25;20.00;31.10
67559;DHT22;54388;53.536;49.300;2023-04-03T04:54:52;20.30;30.40
67559;DHT22;54388;53.536;49.300;2023-04-03T04:57:19;20.50;29.90
67559;DHT22;54388;53.536;49.300;2023-04-03T04:59:46;20.70;29.40
67559;DHT22;54388;53.536;49.300;2023-04-03T05:02:13;20.90;29.20
67559;DHT22;54388;53.536;49.300;2023-04-03T05:04:40;21.20;28.80
67559;DHT22;54388;53.536;49.300;2023-04-03T05:07:07;21.40;28.50
67559;DHT22;54388;53.536;49.300;2023-04-03T05:09:33;21.70;28.30
67559;DHT22;54388;53.536;49.300;2023-04-03T05:12:00;21.80;27.90
67559;DHT22;54388;53.536;49.300;2023-04-03T05:14:29;22.00;27.60
67559;DHT22;54388;53.536;49.300;2023-04-03T05:16:56;22.30;27.40
67559;DHT22;54388;53.536;49.300;2023-04-03T05:19:24;22.40;27.10
67559;DHT22;54388;53.536;49.300;2023-04-03T05:21:51;22.60;26.90
67559;DHT22;54388;53.536;49.300;2023-04-03T05:24:17;22.70;26.60
67559;DHT22;54388;53.536;49.300;2023-04-03T05:26:44;22.90;26.30
67559;DHT22;54388;53.536;49.300;2023-04-03T05:29:11;23.20;26.00
67559;DHT22;54388;53.536;49.300;2023-04-03T05:31:38;23.40;25.70
67559;DHT22;54388;53.536;49.300;2023-04-03T05:34:05;23.70;25.40
67559;DHT22;54388;53.536;49.300;2023-04-03T05:36:32;23.90;24.90
67559;DHT22;54388;53.536;49.300;2023-04-03T05:38:59;24.10;24.50
67559;DHT22;54388;53.536;49.300;2023-04-03T05:41:25;24.30;24.20
67559;DHT22;54388;53.536;49.300;2023-04-03T05:43:52;24.50;24.00
67559;DHT22;54388;53.536;49.300;2023-04-03T05:46:19;24.60;23.70
67559;DHT22;54388;53.536;49.300;2023-04-03T05:48:47;24.70;23.40
67559;DHT22;54388;53.536;49.300;2023-04-03T05:51:17;24.90;23.30
67559;DHT22;54388;53.536;49.300;2023-04-03T05:53:45;25.10;23.10
67559;DHT22;54388;53.536;49.300;2023-04-03T05:56:13;25.20;22.90
67559;DHT22;54388;53.536;49.300;2023-04-03T05:58:41;25.40;22.60
67559;DHT22;54388;53.536;49.300;2023-04-03T06:01:08;25.60;22.50
67559;DHT22;54388;53.536;49.300;2023-04-03T06:03:35;25.80;22.40
67559;DHT22;54388;53.536;49.300;2023-04-03T06:06:03;25.90;22.10
67559;DHT22;54388;53.536;49.300;2023-04-03T06:08:30;26.10;21.90
67559;DHT22;54388;53.536;49.300;2023-04-03T06:10:57;26.30;21.80
67559;DHT22;54388;53.536;49.300;2023-04-03T06:13:24;26.40;21.40
67559;DHT22;54388;53.536;49.300;2023-04-03T06:15:51;26.60;21.30
67559;DHT22;54388;53.536;49.300;2023-04-03T06:18:18;26.70;21.20
67559;DHT22;54388;53.536;49.300;2023-04-03T06:20:45;26.80;21.00
67559;DHT22;54388;53.536;49.300;2023-04-03T06:23:12;26.90;20.80
67559;DHT22;54388;53.536;49.300;2023-04-03T06:25:39;27.10;20.70
67559;DHT22;54388;53.536;49.300;2023-04-03T06:28:06;27.30;20.50
67559;DHT22;54388;53.536;49.300;2023-04-03T06:30:36;27.40;20.30
67559;DHT22;54388;53.536;49.300;2023-04-03T06:33:03;27.60;20.00
67559;DHT22;54388;53.536;49.300;2023-04-03T06:35:30;27.80;19.90
67559;DHT22;54388;53.536;49.300;2023-04-03T06:37:57;28.00;19.70
67559;DHT22;54388;53.536;49.300;2023-04-03T06:40:25;28.30;19.40
67559;DHT22;54388;53.536;49.300;2023-04-03T06:42:52;28.50;19.10
67559;DHT22;54388;53.536;49.300;2023-04-03T06:45:19;28.70;19.00
67559;DHT22;54388;53.536;49.300;2023-04-03T06:47:46;28.80;19.00
67559;DHT22;54388;53.536;49.300;2023-04-03T06:50:13;29.00;18.80
67559;DHT22;54388;53.536;49.300;2023-04-03T06:52:41;29.20;18.80
67559;DHT22;54388;53.536;49.300;2023-04-03T06:55:09;29.40;18.50
67559;DHT22;54388;53.536;49.300;2023-04-03T06:57:36;29.50;18.20
67559;DHT22;54388;53.536;49.300;2023-04-03T07:00:04;29.60;18.00
67559;DHT22;54388;53.536;49.300;2023-04-03T07:02:32;29.80;17.80
67559;DHT22;54388;53.536;49.300;2023-04-03T07:04:59;29.90;17.80
67559;DHT22;54388;53.536;49.300;2023-04-03T07:07:26;30.00;17.60
67559;DHT22;54388;53.536;49.300;2023-04-03T07:09:53;30.30;17.50
67559;DHT22;54388;53.536;49.300;2023-04-03T07:12:20;30.50;17.00
67559;DHT22;54388;53.536;49.300;2023-04-03T07:14:47;30.80;17.20
67559;DHT22;54388;53.536;49.300;2023-04-03T07:17:14;31.00;17.10
67559;DHT22;54388;53.536;49.300;2023-04-03T07:19:40;31.20;16.90
67559;DHT22;54388;53.536;49.300;2023-04-03T07:22:07;31.40;16.70
67559;DHT22;54388;53.536;49.300;2023-04-03T07:24:34;31.50;16.40
67559;DHT22;54388;53.536;49.300;2023-04-03T07:27:02;31.70;16.20
67559;DHT22;54388;53.536;49.300;2023-04-03T07:29:29;32.00;16.00
67559;DHT22;54388;53.536;49.300;2023-04-03T07:31:56;32.30;15.80
67559;DHT22;54388;53.536;49.300;2023-04-03T07:34:23;32.50;15.60
67559;DHT22;54388;53.536;49.300;2023-04-03T07:36:51;32.80;15.40
67559;DHT22;54388;53.536;49.300;2023-04-03T07:39:18;33.10;15.20
67559;DHT22;54388;53.536;49.300;2023-04-03T07:41:45;33.40;15.20
67559;DHT22;54388;53.536;49.300;2023-04-03T07:44:12;33.60;15.20
67559;DHT22;54388;53.536;49.300;2023-04-03T07:46:39;33.70;15.10
67559;DHT22;54388;53.536;49.300;2023-04-03T07:49:07;33.80;14.70
67559;DHT22;54388;53.536;49.300;2023-04-03T07:51:34;33.90;14.50
67559;DHT22;54388;53.536;49.300;2023-04-03T07:54:02;34.10;14.10
67559;DHT22;54388;53.536;49.300;2023-04-03T07:56:30;34.20;14.60
67559;DHT22;54388;53.536;49.300;2023-04-03T07:58:56;34.50;14.70
67559;DHT22;54388;53.536;49.300;2023-04-03T08:01:23;34.80;14.00
67559;DHT22;54388;53.536;49.300;2023-04-03T08:03:50;34.90;14.40
67559;DHT22;54388;53.536;49.300;2023-04-03T08:06:16;35.10;14.70
67559;DHT22;54388;53.536;49.300;2023-04-03T08:08:43;35.20;14.80
67559;DHT22;54388;53.536;49.300;2023-04-03T08:11:11;35.20;14.90
67559;DHT22;54388;53.536;49.300;2023-04-03T08:13:38;35.20;14.80
67559;DHT22;54388;53.536;49.300;2023-04-03T08:16:10;35.20;14.70
67559;DHT22;54388;53.536;49.300;2023-04-03T08:18:37;35.10;14.70
67559;DHT22;54388;53.536;49.300;2023-04-03T08:21:06;35.10;14.80
67559;DHT22;54388;53.536;49.300;2023-04-03T08:23:33;35.10;14.90
67559;DHT22;54388;53.536;49.300;2023-04-03T08:26:06;35.10;14.70
67559;DHT22;54388;53.536;49.300;2023-04-03T08:28:33;35.10;14.80
67559;DHT22;54388;53.536;49.300;2023-04-03T08:31:08;35.10;15.70
67559;DHT22;54388;53.536;49.300;2023-04-03T08:33:37;35.10;14.80
67559;DHT22;54388;53.536;49.300;2023-04-03T08:36:07;35.20;14.60
67559;DHT22;54388;53.536;49.300;2023-04-03T08:38:36;35.30;14.50
67559;DHT22;54388;53.536;49.300;2023-04-03T08:41:18;35.30;14.40
67559;DHT22;54388;53.536;49.300;2023-04-03T08:49:04;35.10;14.40
67559;DHT22;54388;53.536;49.300;2023-04-03T08:51:38;35.00;14.30
67559;DHT22;54388;53.536;49.300;2023-04-03T08:54:21;35.00;14.40
67559;DHT22;54388;53.536;49.300;2023-04-03T08:56:50;34.90;14.60
67559;DHT22;54388;53.536;49.300;2023-04-03T08:59:26;34.90;14.50
67559;DHT22;54388;53.536;49.300;2023-04-03T09:01:54;34.80;14.40
67559;DHT22;54388;53.536;49.300;2023-04-03T09:04:22;34.70;14.40
67559;DHT22;54388;53.536;49.300;2023-04-03T09:07:06;34.60;14.50
67559;DHT22;54388;53.536;49.300;2023-04-03T09:09:41;34.50;14.60
67559;DHT22;54388;53.536;49.300;2023-04-03T09:12:27;34.50;14.60
67559;DHT22;54388;53.536;49.300;2023-04-03T09:15:08;34.40;14.50
67559;DHT22;54388;53.536;49.300;2023-04-03T09:20:54;34.30;14.10
67559;DHT22;54388;53.536;49.300;2023-04-03T09:23:34;34.20;14.20
67559;DHT22;54388;53.536;49.300;2023-04-03T09:26:25;34.00;14.00
67559;DHT22;54388;53.536;49.300;2023-04-03T09:28:57;34.00;13.90
67559;DHT22;54388;53.536;49.300;2023-04-03T09:31:28;34.00;13.80
67559;DHT22;54388;53.536;49.300;2023-04-03T09:33:59;34.00;13.80
67559;DHT22;54388;53.536;49.300;2023-04-03T09:36:46;34.00;13.70
67559;DHT22;54388;53.536;49.300;2023-04-03T09:39:20;34.10;13.70
67559;DHT22;54388;53.536;49.300;2023-04-03T09:44:41;34.20;13.90
67559;DHT22;54388;53.536;49.300;2023-04-03T09:47:31;34.20;13.60
67559;DHT22;54388;53.536;49.300;2023-04-03T09:52:44;34.20;13.00
67559;DHT22;54388;53.536;49.300;2023-04-03T09:55:22;34.30;13.20
67559;DHT22;54388;53.536;49.300;2023-04-03T09:57:54;34.30;13.30
67559;DHT22;54388;53.536;49.300;2023-04-03T10:00:38;34.20;13.10
67559;DHT22;54388;53.536;49.300;2023-04-03T10:03:08;34.20;13.00
67559;DHT22;54388;53.536;49.300;2023-04-03T10:05:49;34.10;13.20
67559;DHT22;54388;53.536;49.300;2023-04-03T10:10:46;33.90;13.00
67559;DHT22;54388;53.536;49.300;2023-04-03T10:13:20;33.80;13.00
67559;DHT22;54388;53.536;49.300;2023-04-03T10:15:51;33.60;13.00
67559;DHT22;54388;53.536;49.300;2023-04-03T10:18:49;33.60;13.70
67559;DHT22;54388;53.536;49.300;2023-04-03T10:23:54;33.30;12.80
67559;DHT22;54388;53.536;49.300;2023-04-03T10:35:12;32.80;12.40
67559;DHT22;54388;53.536;49.300;2023-04-03T10:38:43;32.70;12.40
67559;DHT22;54388;53.536;49.300;2023-04-03T10:46:41;32.50;12.30
67559;DHT22;54388;53.536;49.300;2023-04-03T10:52:14;32.60;12.40
67559;DHT22;54388;53.536;49.300;2023-04-03T10:54:56;32.70;12.50
67559;DHT22;54388;53.536;49.300;2023-04-03T10:57:25;32.80;13.40
67559;DHT22;54388;53.536;49.300;2023-04-03T11:00:04;32.90;12.50
67559;DHT22;54388;53.536;49.300;2023-04-03T11:02:53;33.00;12.70
67559;DHT22;54388;53.536;49.300;2023-04-03T11:05:37;33.20;12.80
67559;DHT22;54388;53.536;49.300;2023-04-03T11:08:28;33.30;12.60
67559;DHT22;54388;53.536;49.300;2023-04-03T11:11:03;33.40;12.60
67559;DHT22;54388;53.536;49.300;2023-04-03T11:16:24;33.60;12.60
67559;DHT22;54388;53.536;49.300;2023-04-03T11:18:54;33.60;12.60
67559;DHT22;54388;53.536;49.300;2023-04-03T11:21:43;33.60;12.70
67559;DHT22;54388;53.536;49.300;2023-04-03T11:24:22;33.60;12.70
67559;DHT22;54388;53.536;49.300;2023-04-03T11:26:50;33.60;12.80
67559;DHT22;54388;53.536;49.300;2023-04-03T11:29:22;33.50;12.80
67559;DHT22;54388;53.536;49.300;2023-04-03T11:34:41;33.40;12.90
67559;DHT22;54388;53.536;49.300;2023-04-03T11:37:28;33.40;12.90
67559;DHT22;54388;53.536;49.300;2023-04-03T11:40:43;33.30;13.00
67559;DHT22;54388;53.536;49.300;2023-04-03T11:43:23;33.30;13.80
67559;DHT22;54388;53.536;49.300;2023-04-03T11:46:08;33.30;13.10
67559;DHT22;54388;53.536;49.300;2023-04-03T11:53:43;33.20;13.40
67559;DHT22;54388;53.536;49.300;2023-04-03T12:01:50;33.30;13.30
67559;DHT22;54388;53.536;49.300;2023-04-03T12:04:19;33.30;13.80
67559;DHT22;54388;53.536;49.300;2023-04-03T12:11:55;33.40;13.50
67559;DHT22;54388;53.536;49.300;2023-04-03T12:14:24;33.50;13.50
67559;DHT22;54388;53.536;49.300;2023-04-03T12:16:54;33.60;13.60
67559;DHT22;54388;53.536;49.300;2023-04-03T12:19:38;33.80;13.60
67559;DHT22;54388;53.536;49.300;2023-04-03T12:22:18;34.00;13.50
67559;DHT22;54388;53.536;49.300;2023-04-03T12:24:49;34.20;13.40
67559;DHT22;54388;53.536;49.300;2023-04-03T12:30:04;34.50;13.30
67559;DHT22;54388;53.536;49.300;2023-04-03T12:32:56;34.50;13.30
67559;DHT22;54388;53.536;49.300;2023-04-03T12:35:36;34.50;13.30
67559;DHT22;54388;53.536;49.300;2023-04-03T12:38:33;34.50;13.40
67559;DHT22;54388;53.536;49.300;2023-04-03T12:41:27;34.30;13.40
67559;DHT22;54388;53.536;49.300;2023-04-03T12:46:52;34.10;13.40
67559;DHT22;54388;53.536;49.300;2023-04-03T12:49:42;34.00;13.40
67559;DHT22;54388;53.536;49.300;2023-04-03T12:52:39;34.00;13.70
67559;DHT22;54388;53.536;49.300;2023-04-03T12:55:18;33.90;13.60
67559;DHT22;54388;53.536;49.300;2023-04-03T12:57:45;33.90;13.60
67559;DHT22;54388;53.536;49.300;2023-04-03T13:00:34;33.90;13.60
67559;DHT22;54388;53.536;49.300;2023-04-03T13:03:03;33.80;13.60
67559;DHT22;54388;53.536;49.300;2023-04-03T13:05:31;33.80;13.60
67559;DHT22;54388;53.536;49.300;2023-04-03T13:08:17;33.80;13.50
67559;DHT22;54388;53.536;49.300;2023-04-03T13:10:58;33.70;13.50
67559;DHT22;54388;53.536;49.300;2023-04-03T13:13:26;33.70;13.50
67559;DHT22;54388;53.536;49.300;2023-04-03T13:15:53;33.60;13.50
67559;DHT22;54388;53.536;49.300;2023-04-03T13:20:57;33.60;13.40
67559;DHT22;54388;53.536;49.300;2023-04-03T13:23:24;33.50;13.50
67559;DHT22;54388;53.536;49.300;2023-04-03T13:25:51;33.30;13.40
67559;DHT22;54388;53.536;49.300;2023-04-03T13:28:23;33.30;13.50
67559;DHT22;54388;53.536;49.300;2023-04-03T13:31:03;33.10;13.50
67559;DHT22;54388;53.536;49.300;2023-04-03T13:33:34;33.00;13.50
67559;DHT22;54388;53.536;49.300;2023-04-03T13:36:22;33.00;13.50
67559;DHT22;54388;53.536;49.300;2023-04-03T13:39:00;32.80;13.50
67559;DHT22;54388;53.536;49.300;2023-04-03T13:41:38;32.70;13.60
67559;DHT22;54388;53.536;49.300;2023-04-03T13:46:55;32.40;13.50
67559;DHT22;54388;53.536;49.300;2023-04-03T13:49:37;32.40;13.60
67559;DHT22;54388;53.536;49.300;2023-04-03T13:52:24;32.20;13.60
67559;DHT22;54388;53.536;49.300;2023-04-03T13:54:55;32.00;13.70
67559;DHT22;54388;53.536;49.300;2023-04-03T13:57:22;31.90;13.70
67559;DHT22;54388;53.536;49.300;2023-04-03T13:59:50;31.80;13.80
67559;DHT22;54388;53.536;49.300;2023-04-03T14:02:31;31.80;13.90
67559;DHT22;54388;53.536;49.300;2023-04-03T14:05:00;31.70;13.90
67559;DHT22;54388;53.536;49.300;2023-04-03T14:07:29;31.70;14.00
67559;DHT22;54388;53.536;49.300;2023-04-03T14:09:57;31.60;14.20
67559;DHT22;54388;53.536;49.300;2023-04-03T14:12:27;31.50;14.10
67559;DHT22;54388;53.536;49.300;2023-04-03T14:14:55;31.40;14.20
67559;DHT22;54388;53.536;49.300;2023-04-03T14:17:24;31.30;14.20
67559;DHT22;54388;53.536;49.300;2023-04-03T14:19:53;31.30;14.20
67559;DHT22;54388;53.536;49.300;2023-04-03T14:22:28;31.20;14.20
67559;DHT22;54388;53.536;49.300;2023-04-03T14:24:56;31.10;14.10
67559;DHT22;54388;53.536;49.300;2023-04-03T14:27:33;31.00;14.10
67559;DHT22;54388;53.536;49.300;2023-04-03T14:30:01;30.90;14.10
67559;DHT22;54388;53.536;49.300;2023-04-03T14:32:29;30.80;14.10
67559;DHT22;54388;53.536;49.300;2023-04-03T14:34:56;30.70;14.10
67559;DHT22;54388;53.536;49.300;2023-04-03T14:37:26;30.60;14.20
67559;DHT22;54388;53.536;49.300;2023-04-03T14:39:54;30.50;14.20
67559;DHT22;54388;53.536;49.300;2023-04-03T14:42:31;30.50;14.20
67559;DHT22;54388;53.536;49.300;2023-04-03T14:45:00;30.30;14.20
67559;DHT22;54388;53.536;49.300;2023-04-03T14:47:29;30.20;14.30
67559;DHT22;54388;53.536;49.300;2023-04-03T14:49:56;30.10;14.40
67559;DHT22;54388;53.536;49.300;2023-04-03T14:52:33;29.90;14.50
67559;DHT22;54388;53.536;49.300;2023-04-03T14:55:01;29.80;14.70
67559;DHT22;54388;53.536;49.300;2023-04-03T14:57:29;29.60;14.60
67559;DHT22;54388;53.536;49.300;2023-04-03T14:59:56;29.40;14.70
67559;DHT22;54388;53.536;49.300;2023-04-03T15:02:32;29.30;14.70
67559;DHT22;54388;53.536;49.300;2023-04-03T15:05:04;29.10;14.80
67559;DHT22;54388;53.536;49.300;2023-04-03T15:07:35;28.90;14.90
67559;DHT22;54388;53.536;49.300;2023-04-03T15:10:16;28.70;15.00
67559;DHT22;54388;53.536;49.300;2023-04-03T15:12:44;28.50;15.10
67559;DHT22;54388;53.536;49.300;2023-04-03T15:15:11;28.20;15.10
67559;DHT22;54388;53.536;49.300;2023-04-03T15:17:39;27.90;15.20
67559;DHT22;54388;53.536;49.300;2023-04-03T15:20:17;27.70;15.30
67559;DHT22;54388;53.536;49.300;2023-04-03T15:22:45;27.30;15.30
67559;DHT22;54388;53.536;49.300;2023-04-03T15:25:12;27.10;15.40
67559;DHT22;54388;53.536;49.300;2023-04-03T15:27:39;26.80;15.60
67559;DHT22;54388;53.536;49.300;2023-04-03T15:30:08;26.50;15.80
67559;DHT22;54388;53.536;49.300;2023-04-03T15:32:35;26.20;15.90
67559;DHT22;54388;53.536;49.300;2023-04-03T15:35:03;25.90;16.00
67559;DHT22;54388;53.536;49.300;2023-04-03T15:37:30;25.70;16.10
67559;DHT22;54388;53.536;49.300;2023-04-03T15:39:59;25.40;16.30
67559;DHT22;54388;53.536;49.300;2023-04-03T15:42:25;25.10;16.20
67559;DHT22;54388;53.536;49.300;2023-04-03T15:44:52;24.90;16.40
67559;DHT22;54388;53.536;49.300;2023-04-03T15:47:19;24.70;16.60
67559;DHT22;54388;53.536;49.300;2023-04-03T15:49:47;24.40;16.70
67559;DHT22;54388;53.536;49.300;2023-04-03T15:52:14;24.20;16.90
67559;DHT22;54388;53.536;49.300;2023-04-03T15:54:41;24.00;17.00
67559;DHT22;54388;53.536;49.300;2023-04-03T15:57:08;23.80;17.20
67559;DHT22;54388;53.536;49.300;2023-04-03T15:59:35;23.60;17.20
67559;DHT22;54388;53.536;49.300;2023-04-03T16:02:05;23.40;17.40
67559;DHT22;54388;53.536;49.300;2023-04-03T16:04:33;23.20;17.50
67559;DHT22;54388;53.536;49.300;2023-04-03T16:07:02;23.10;17.60
67559;DHT22;54388;53.536;49.300;2023-04-03T16:09:35;22.90;17.70
67559;DHT22;54388;53.536;49.300;2023-04-03T16:12:03;22.70;17.90
67559;DHT22;54388;53.536;49.300;2023-04-03T16:14:31;22.50;18.10
67559;DHT22;54388;53.536;49.300;2023-04-03T16:16:58;22.30;18.10
67559;DHT22;54388;53.536;49.300;2023-04-03T16:19:25;22.10;18.30
67559;DHT22;54388;53.536;49.300;2023-04-03T16:21:54;22.00;18.40
67559;DHT22;54388;53.536;49.300;2023-04-03T16:24:21;21.80;18.60
67559;DHT22;54388;53.536;49.300;2023-04-03T16:26:48;21.70;18.70
67559;DHT22;54388;53.536;49.300;2023-04-03T16:29:16;21.50;18.80
67559;DHT22;54388;53.536;49.300;2023-04-03T16:31:44;21.40;19.10
67559;DHT22;54388;53.536;49.300;2023-04-03T16:34:11;21.20;19.20
67559;DHT22;54388;53.536;49.300;2023-04-03T16:36:39;21.10;19.40
67559;DHT22;54388;53.536;49.300;2023-04-03T16:39:05;20.90;19.50
67559;DHT22;54388;53.536;49.300;2023-04-03T16:41:33;20.80;19.70
67559;DHT22;54388;53.536;49.300;2023-04-03T16:44:01;20.60;19.80
67559;DHT22;54388;53.536;49.300;2023-04-03T16:46:29;20.50;20.10
67559;DHT22;54388;53.536;49.300;2023-04-03T16:48:57;20.40;20.20
67559;DHT22;54388;53.536;49.300;2023-04-03T16:51:25;20.30;20.40
67559;DHT22;54388;53.536;49.300;2023-04-03T16:53:52;20.20;20.60
67559;DHT22;54388;53.536;49.300;2023-04-03T16:56:19;20.10;20.70